createdAt,value
2023-03-17T00:01:03.347Z,3.55
2023-03-17T00:03:39.215Z,3.52
2023-03-17T00:06:14.097Z,3.47
2023-03-17T00:08:45.162Z,3.45
2023-03-17T00:11:15.298Z,3.44
2023-03-17T00:13:46.982Z,3.37
2023-03-17T00:16:21.695Z,3.30
2023-03-17T00:18:53.838Z,3.28
2023-03-17T00:21:29.244Z,3.26
2023-03-17T00:24:00.346Z,3.27
2023-03-17T00:26:31.131Z,3.25
2023-03-17T00:29:01.801Z,3.24
2023-03-17T00:31:33.971Z,3.24
2023-03-17T00:34:04.900Z,3.22
2023-03-17T00:36:36.068Z,3.21
2023-03-17T00:39:06.521Z,3.23
2023-03-17T00:41:37.201Z,3.21
2023-03-17T00:44:08.100Z,3.19
2023-03-17T00:46:39.560Z,3.17
2023-03-17T00:51:47.457Z,3.19
2023-03-17T00:54:19.170Z,3.21
2023-03-17T00:56:51.634Z,3.21
2023-03-17T00:59:27.487Z,3.24
2023-03-17T01:01:58.536Z,3.28
2023-03-17T01:04:27.689Z,3.32
2023-03-17T01:06:59.935Z,3.31
2023-03-17T01:09:31.196Z,3.30
2023-03-17T01:12:01.894Z,3.31
2023-03-17T01:14:32.821Z,3.35
2023-03-17T01:17:03.520Z,3.36
2023-03-17T01:19:34.132Z,3.29
2023-03-17T01:22:04.931Z,3.29
2023-03-17T01:24:35.587Z,3.31
2023-03-17T01:27:06.429Z,3.32
2023-03-17T01:29:37.147Z,3.37
2023-03-17T01:32:08.524Z,3.42
2023-03-17T01:34:39.148Z,3.45
2023-03-17T01:37:10.135Z,3.50
2023-03-17T01:39:40.819Z,3.49
2023-03-17T01:42:13.384Z,3.49
2023-03-17T01:44:58.583Z,3.50
2023-03-17T01:47:30.043Z,3.52
2023-03-17T01:50:04.944Z,3.54
2023-03-17T01:52:38.305Z,3.54
2023-03-17T01:55:13.477Z,3.54
2023-03-17T01:57:47.865Z,3.55
2023-03-17T02:00:24.059Z,3.52
2023-03-17T02:02:56.498Z,3.51
2023-03-17T02:05:29.475Z,3.51
2023-03-17T02:08:00.756Z,3.50
2023-03-17T02:10:31.901Z,3.52
2023-03-17T02:13:04.597Z,3.54
2023-03-17T02:15:43.157Z,3.56
2023-03-17T02:18:15.383Z,3.58
2023-03-17T02:21:28.872Z,3.63
2023-03-17T02:24:02.408Z,3.65
2023-03-17T02:26:35.667Z,3.66
2023-03-17T02:29:06.584Z,3.63
2023-03-17T02:31:37.207Z,3.65
2023-03-17T02:34:07.885Z,3.68
2023-03-17T02:36:38.613Z,3.69
2023-03-17T02:39:09.426Z,3.70
2023-03-17T02:41:40.121Z,3.68
2023-03-17T02:44:11.045Z,3.69
2023-03-17T02:46:41.755Z,3.70
2023-03-17T02:49:13.159Z,3.73
2023-03-17T02:51:43.794Z,3.73
2023-03-17T02:54:14.567Z,3.74
2023-03-17T02:56:45.377Z,3.72
2023-03-17T02:59:16.167Z,3.70
2023-03-17T03:01:46.940Z,3.64
2023-03-17T03:04:18.153Z,3.64
2023-03-17T03:06:47.641Z,3.63
2023-03-17T03:09:18.381Z,3.61
2023-03-17T03:11:49.289Z,3.63
2023-03-17T03:14:19.974Z,3.65
2023-03-17T03:16:50.899Z,3.65
2023-03-17T03:19:21.791Z,3.63
2023-03-17T03:21:52.807Z,3.61
2023-03-17T03:24:23.894Z,3.62
2023-03-17T03:26:54.672Z,3.63
2023-03-17T03:29:25.377Z,3.60
2023-03-17T03:31:56.091Z,3.56
2023-03-17T03:34:26.912Z,3.53
2023-03-17T03:36:57.665Z,3.50
2023-03-17T03:39:28.438Z,3.47
2023-03-17T03:41:59.088Z,3.46
2023-03-17T03:44:29.744Z,3.43
2023-03-17T03:47:00.411Z,3.39
2023-03-17T03:49:31.138Z,3.38
2023-03-17T03:52:01.785Z,3.33
2023-03-17T03:54:32.473Z,3.29
2023-03-17T03:57:03.399Z,3.28
2023-03-17T03:59:34.229Z,3.27
2023-03-17T04:02:04.970Z,3.22
2023-03-17T04:04:35.892Z,3.14
2023-03-17T04:07:06.692Z,3.09
2023-03-17T04:09:37.407Z,3.07
2023-03-17T04:12:11.596Z,3.06
2023-03-17T04:14:42.748Z,3.06
2023-03-17T04:17:13.881Z,3.05
2023-03-17T04:19:43.034Z,3.03
2023-03-17T04:22:14.327Z,2.97
2023-03-17T04:24:45.027Z,2.93
2023-03-17T04:27:15.746Z,2.90
2023-03-17T04:29:46.442Z,2.90
2023-03-17T04:32:17.218Z,2.90
2023-03-17T04:34:48.010Z,2.85
2023-03-17T04:37:18.662Z,2.81
2023-03-17T04:39:49.347Z,2.79
2023-03-17T04:42:20.314Z,2.80
2023-03-17T04:44:50.983Z,2.77
2023-03-17T04:47:21.722Z,2.74
2023-03-17T04:49:52.422Z,2.70
2023-03-17T04:52:23.090Z,2.64
2023-03-17T04:54:53.795Z,2.62
2023-03-17T04:57:24.497Z,2.62
2023-03-17T04:59:55.286Z,2.65
2023-03-17T05:02:26.087Z,2.66
2023-03-17T05:04:56.923Z,2.66
2023-03-17T05:07:27.545Z,2.68
2023-03-17T05:09:58.324Z,2.64
2023-03-17T05:12:29.192Z,2.57
2023-03-17T05:14:58.534Z,2.58
2023-03-17T05:17:29.308Z,2.61
2023-03-17T05:19:59.982Z,2.62
2023-03-17T05:22:31.029Z,2.62
2023-03-17T05:25:02.085Z,2.66
2023-03-17T05:27:32.736Z,2.68
2023-03-17T05:30:12.458Z,2.71
2023-03-17T05:32:43.115Z,2.77
2023-03-17T05:35:13.854Z,2.84
2023-03-17T05:37:44.735Z,2.90
2023-03-17T05:40:15.885Z,2.98
2023-03-17T05:42:46.866Z,3.06
2023-03-17T05:45:17.659Z,3.14
2023-03-17T05:47:48.279Z,3.18
2023-03-17T05:50:19.102Z,3.25
2023-03-17T05:52:50.116Z,3.32
2023-03-17T05:55:19.626Z,3.40
2023-03-17T05:57:50.354Z,3.43
2023-03-17T06:00:21.986Z,3.51
2023-03-17T06:02:52.669Z,3.60
2023-03-17T06:05:23.275Z,3.69
2023-03-17T06:07:56.577Z,3.78
2023-03-17T06:10:27.676Z,3.90
2023-03-17T06:12:58.647Z,4.02
2023-03-17T06:15:29.797Z,4.11
2023-03-17T06:17:59.069Z,4.19
2023-03-17T06:20:29.857Z,4.32
2023-03-17T06:23:04.969Z,4.45
2023-03-17T06:25:36.525Z,4.54
2023-03-17T06:28:05.854Z,4.65
2023-03-17T06:30:40.073Z,4.72
2023-03-17T06:33:11.550Z,4.80
2023-03-17T06:35:42.398Z,4.91
2023-03-17T06:38:13.678Z,5.01
2023-03-17T06:40:44.523Z,5.12
2023-03-17T06:43:15.243Z,5.18
2023-03-17T06:45:46.109Z,5.26
2023-03-17T06:48:16.907Z,5.39
2023-03-17T06:50:47.714Z,5.49
2023-03-17T06:53:18.638Z,5.66
2023-03-17T06:55:49.281Z,5.81
2023-03-17T06:58:20.363Z,5.92
2023-03-17T07:00:49.502Z,6.03
2023-03-17T07:03:20.592Z,6.09
2023-03-17T07:05:49.746Z,6.14
2023-03-17T07:08:20.505Z,6.17
2023-03-17T07:10:51.275Z,6.25
2023-03-17T07:13:21.932Z,6.33
2023-03-17T07:15:55.283Z,6.43
2023-03-17T07:18:26.280Z,6.48
2023-03-17T07:20:56.916Z,6.54
2023-03-17T07:23:27.637Z,6.62
2023-03-17T07:25:58.587Z,6.69
2023-03-17T07:28:27.817Z,6.75
2023-03-17T07:30:58.616Z,6.82
2023-03-17T07:33:29.516Z,6.95
2023-03-17T07:36:00.323Z,7.11
2023-03-17T07:38:31.022Z,7.15
2023-03-17T07:41:01.722Z,7.23
2023-03-17T07:43:32.402Z,7.33
2023-03-17T07:46:05.164Z,7.44
2023-03-17T07:48:37.021Z,7.53
2023-03-17T07:51:08.861Z,7.51
2023-03-17T07:53:41.248Z,7.47
2023-03-17T07:56:12.103Z,7.53
2023-03-17T07:58:42.801Z,7.60
2023-03-17T08:01:13.557Z,7.70
2023-03-17T08:03:44.310Z,7.75
2023-03-17T08:06:15.041Z,7.78
2023-03-17T08:08:45.718Z,7.81
2023-03-17T08:11:16.411Z,7.81
2023-03-17T08:13:47.611Z,7.90
2023-03-17T08:16:18.657Z,7.96
2023-03-17T08:18:47.773Z,8.01
2023-03-17T08:21:18.435Z,8.12
2023-03-17T08:23:49.235Z,8.23
2023-03-17T08:26:20.235Z,8.28
2023-03-17T08:28:51.082Z,8.34
2023-03-17T08:31:21.262Z,8.41
2023-03-17T08:33:53.989Z,8.49
2023-03-17T08:36:25.237Z,8.62
2023-03-17T08:38:55.932Z,8.79
2023-03-17T08:41:27.862Z,8.96
2023-03-17T08:43:58.902Z,9.08
2023-03-17T08:46:32.136Z,9.15
2023-03-17T08:49:03.583Z,9.19
2023-03-17T08:51:36.817Z,9.14
2023-03-17T08:54:08.386Z,9.09
2023-03-17T08:56:39.771Z,9.12
2023-03-17T08:59:11.141Z,9.24
2023-03-17T09:01:41.902Z,9.35
2023-03-17T09:04:12.740Z,9.44
2023-03-17T09:06:59.399Z,9.47
2023-03-17T09:09:33.660Z,9.47
2023-03-17T09:12:06.742Z,9.44
2023-03-17T09:14:43.854Z,9.42
2023-03-17T09:17:15.533Z,9.41
2023-03-17T09:19:46.360Z,9.45
2023-03-17T09:22:18.014Z,9.37
2023-03-17T09:24:49.162Z,9.37
2023-03-17T09:27:19.853Z,9.38
2023-03-17T09:29:51.085Z,9.41
2023-03-17T09:32:22.241Z,9.46
2023-03-17T09:34:51.739Z,9.46
2023-03-17T09:37:22.494Z,9.49
2023-03-17T09:39:53.223Z,9.63
2023-03-17T09:42:41.385Z,9.87
2023-03-17T09:45:28.199Z,10.12
2023-03-17T09:48:28.969Z,10.24
2023-03-17T09:51:03.286Z,10.31
2023-03-17T09:53:36.445Z,10.29
2023-03-17T09:56:12.654Z,10.32
2023-03-17T09:58:48.492Z,10.47
2023-03-17T10:01:22.540Z,10.64
2023-03-17T10:03:53.776Z,10.81
2023-03-17T10:06:37.319Z,10.89
2023-03-17T10:09:21.039Z,10.87
2023-03-17T10:12:02.197Z,10.85
2023-03-17T10:14:37.895Z,10.92
2023-03-17T10:17:17.266Z,10.91
2023-03-17T10:19:56.260Z,10.99
2023-03-17T10:22:32.503Z,11.03
2023-03-17T10:25:13.447Z,11.08
2023-03-17T10:27:49.610Z,11.13
2023-03-17T10:30:24.451Z,11.11
2023-03-17T10:33:01.088Z,11.07
2023-03-17T10:35:32.839Z,10.99
2023-03-17T10:38:16.647Z,10.93
2023-03-17T10:40:55.959Z,10.81
2023-03-17T10:43:34.624Z,10.73
2023-03-17T10:46:07.895Z,10.68
2023-03-17T10:48:39.425Z,10.68
2023-03-17T10:51:21.248Z,10.73
2023-03-17T10:53:54.334Z,10.83
2023-03-17T10:56:33.280Z,10.90
2023-03-17T11:02:28.896Z,11.12
2023-03-17T11:05:04.414Z,11.20
2023-03-17T11:07:39.745Z,11.31
2023-03-17T11:10:20.585Z,11.36
2023-03-17T11:12:58.933Z,11.37
2023-03-17T11:15:34.799Z,11.43
2023-03-17T11:18:13.599Z,11.49
2023-03-17T11:20:50.722Z,11.53
2023-03-17T11:23:49.802Z,11.50
2023-03-17T11:26:41.025Z,11.45
2023-03-17T11:29:26.407Z,11.44
2023-03-17T11:32:11.001Z,11.50
2023-03-17T11:34:53.702Z,11.63
2023-03-17T11:37:40.960Z,11.69
2023-03-17T11:40:19.758Z,11.70
2023-03-17T11:43:09.464Z,11.72
2023-03-17T11:45:47.229Z,11.75
2023-03-17T11:48:34.545Z,11.79
2023-03-17T11:51:16.089Z,11.93
2023-03-17T11:53:59.046Z,12.07
2023-03-17T11:56:39.040Z,12.18
2023-03-17T11:59:18.370Z,12.25
2023-03-17T12:01:54.917Z,12.29
2023-03-17T12:04:30.732Z,12.33
2023-03-17T12:07:06.534Z,12.35
2023-03-17T12:09:44.910Z,12.44
2023-03-17T12:12:28.487Z,12.53
2023-03-17T12:15:01.827Z,12.59
2023-03-17T12:17:42.196Z,12.70
2023-03-17T12:20:18.321Z,12.80
2023-03-17T12:22:56.689Z,12.88
2023-03-17T12:25:31.543Z,12.81
2023-03-17T12:28:06.810Z,12.86
2023-03-17T12:30:47.176Z,12.93
2023-03-17T12:33:28.144Z,13.01
2023-03-17T12:35:58.346Z,13.06
2023-03-17T12:38:39.374Z,13.10
2023-03-17T12:41:26.620Z,13.14
2023-03-17T12:44:05.689Z,13.11
2023-03-17T12:46:50.345Z,13.14
2023-03-17T12:50:06.092Z,13.16
2023-03-17T12:52:55.321Z,13.15
2023-03-17T12:55:30.667Z,13.10
2023-03-17T12:58:04.490Z,13.10
2023-03-17T13:00:48.228Z,13.06
2023-03-17T13:03:24.724Z,13.06
2023-03-17T13:06:01.023Z,13.05
2023-03-17T13:08:34.834Z,13.04
2023-03-17T13:11:25.554Z,13.02
2023-03-17T13:14:15.056Z,12.98
2023-03-17T13:16:47.135Z,12.92
2023-03-17T13:19:21.024Z,12.92
2023-03-17T13:22:13.447Z,12.89
2023-03-17T13:24:48.999Z,12.86
2023-03-17T13:27:49.214Z,12.85
2023-03-17T13:30:51.920Z,12.84
2023-03-17T13:33:27.638Z,12.89
2023-03-17T13:36:21.928Z,12.94
2023-03-17T13:39:26.056Z,12.95
2023-03-17T13:42:32.225Z,12.94
2023-03-17T13:45:21.950Z,13.00
2023-03-17T13:47:52.763Z,13.02
2023-03-17T13:50:33.846Z,13.01
2023-03-17T13:53:04.850Z,12.97
2023-03-17T13:55:39.168Z,12.95
2023-03-17T13:58:31.621Z,12.94
2023-03-17T14:01:10.345Z,12.90
2023-03-17T14:03:46.765Z,12.88
2023-03-17T14:06:19.987Z,12.88
2023-03-17T14:08:53.993Z,12.90
2023-03-17T14:11:32.944Z,12.92
2023-03-17T14:14:31.697Z,12.89
2023-03-17T14:17:10.645Z,12.86
2023-03-17T14:19:41.592Z,12.89
2023-03-17T14:22:22.042Z,12.94
2023-03-17T14:24:59.392Z,12.95
2023-03-17T14:27:32.963Z,13.00
2023-03-17T14:30:16.892Z,13.03
2023-03-17T14:32:51.175Z,13.02
2023-03-17T14:35:21.910Z,12.99
2023-03-17T14:37:52.589Z,12.98
2023-03-17T14:40:26.984Z,12.96
2023-03-17T14:42:57.733Z,12.96
2023-03-17T14:45:46.219Z,13.00
2023-03-17T14:48:19.375Z,13.05
2023-03-17T14:50:54.314Z,13.03
2023-03-17T14:53:25.884Z,13.05
2023-03-17T14:55:57.756Z,13.05
2023-03-17T14:58:32.571Z,12.98
2023-03-17T15:01:12.302Z,12.86
2023-03-17T15:03:54.718Z,12.77
2023-03-17T15:06:27.420Z,12.67
2023-03-17T15:08:59.185Z,12.60
2023-03-17T15:11:38.758Z,12.57
2023-03-17T15:14:21.087Z,12.53
2023-03-17T15:16:54.988Z,12.47
2023-03-17T15:19:28.918Z,12.39
2023-03-17T15:22:04.313Z,12.33
2023-03-17T15:24:39.596Z,12.27
2023-03-17T15:27:16.394Z,12.20
2023-03-17T15:29:47.525Z,12.10
2023-03-17T15:32:19.698Z,12.01
2023-03-17T15:34:52.433Z,11.93
2023-03-17T15:37:25.184Z,11.88
2023-03-17T15:39:56.648Z,11.87
2023-03-17T15:42:29.473Z,11.87
2023-03-17T15:45:00.664Z,11.83
2023-03-17T15:47:33.661Z,11.77
2023-03-17T15:50:19.572Z,11.72
2023-03-17T15:52:52.886Z,11.66
2023-03-17T15:55:26.020Z,11.60
2023-03-17T15:57:57.113Z,11.52
2023-03-17T16:00:34.604Z,11.45
2023-03-17T16:03:15.508Z,11.39
2023-03-17T16:05:46.545Z,11.32
2023-03-17T16:08:17.641Z,11.26
2023-03-17T16:10:48.350Z,11.23
2023-03-17T16:13:22.060Z,11.17
2023-03-17T16:16:21.851Z,11.12
2023-03-17T16:18:50.688Z,11.05
2023-03-17T16:21:21.753Z,11.00
2023-03-17T16:23:50.836Z,10.92
2023-03-17T16:26:21.526Z,10.84
2023-03-17T16:28:54.380Z,10.75
2023-03-17T16:31:27.029Z,10.70
2023-03-17T16:33:57.949Z,10.62
2023-03-17T16:36:31.539Z,10.53
2023-03-17T16:39:02.299Z,10.47
2023-03-17T16:41:36.070Z,10.37
2023-03-17T16:44:11.195Z,10.28
2023-03-17T16:46:42.368Z,10.19
2023-03-17T16:49:14.496Z,10.10
2023-03-17T16:51:45.435Z,10.01
2023-03-17T16:54:16.094Z,9.92
2023-03-17T16:56:47.072Z,9.84
2023-03-17T16:59:18.951Z,9.74
2023-03-17T17:01:50.040Z,9.66
2023-03-17T17:04:22.171Z,9.59
2023-03-17T17:06:53.059Z,9.53
2023-03-17T17:09:26.202Z,9.46
2023-03-17T17:11:56.901Z,9.39
2023-03-17T17:14:27.601Z,9.33
2023-03-17T17:17:21.633Z,9.29
2023-03-17T17:19:49.811Z,9.24
2023-03-17T17:22:20.472Z,9.19
2023-03-17T17:24:51.160Z,9.14
2023-03-17T17:27:22.772Z,9.11
2023-03-17T17:29:53.470Z,9.07
2023-03-17T17:32:24.189Z,9.03
2023-03-17T17:34:55.090Z,8.99
2023-03-17T17:37:26.034Z,8.95
2023-03-17T17:39:56.748Z,8.92
2023-03-17T17:42:35.551Z,8.89
2023-03-17T17:45:09.070Z,8.85
2023-03-17T17:47:39.774Z,8.82
2023-03-17T17:50:18.380Z,8.79
2023-03-17T17:52:49.148Z,8.76
2023-03-17T17:55:20.819Z,8.74
2023-03-17T17:57:52.539Z,8.71
2023-03-17T18:00:23.608Z,8.69
2023-03-17T18:02:54.285Z,8.66
2023-03-17T18:05:25.260Z,8.62
2023-03-17T18:07:55.994Z,8.60
2023-03-17T18:10:28.519Z,8.57
2023-03-17T18:13:03.547Z,8.53
2023-03-17T18:15:34.718Z,8.49
2023-03-17T18:18:03.977Z,8.48
2023-03-17T18:20:35.169Z,8.44
2023-03-17T18:23:05.864Z,8.41
2023-03-17T18:25:36.542Z,8.39
2023-03-17T18:28:08.512Z,8.37
2023-03-17T18:30:39.398Z,8.33
2023-03-17T18:33:10.661Z,8.30
2023-03-17T18:35:41.958Z,8.27
2023-03-17T18:38:12.712Z,8.25
2023-03-17T18:40:44.536Z,8.22
2023-03-17T18:43:15.217Z,8.20
2023-03-17T18:45:46.216Z,8.18
2023-03-17T18:48:17.062Z,8.15
2023-03-17T18:50:47.904Z,8.14
2023-03-17T18:53:18.672Z,8.11
2023-03-17T18:55:49.477Z,8.08
2023-03-17T18:58:20.270Z,8.05
2023-03-17T19:00:51.306Z,8.02
2023-03-17T19:03:22.581Z,7.99
2023-03-17T19:05:53.375Z,7.97
2023-03-17T19:08:24.256Z,7.95
2023-03-17T19:10:55.048Z,7.92
2023-03-17T19:13:25.729Z,7.88
2023-03-17T19:15:57.125Z,7.86
2023-03-17T19:18:28.456Z,7.82
2023-03-17T19:20:59.393Z,7.79
2023-03-17T19:23:30.445Z,7.75
2023-03-17T19:26:01.330Z,7.73
2023-03-17T19:28:32.956Z,7.68
2023-03-17T19:31:03.847Z,7.65
2023-03-17T19:33:34.638Z,7.60
2023-03-17T19:36:12.445Z,7.57
2023-03-17T19:38:43.169Z,7.53
2023-03-17T19:41:13.858Z,7.51
2023-03-17T19:43:44.568Z,7.48
2023-03-17T19:46:19.567Z,7.46
2023-03-17T19:48:50.432Z,7.43
2023-03-17T19:51:21.200Z,7.40
2023-03-17T19:53:55.122Z,7.35
2023-03-17T19:56:25.863Z,7.34
2023-03-17T19:58:56.817Z,7.30
2023-03-17T20:01:27.639Z,7.28
2023-03-17T20:03:58.646Z,7.26
2023-03-17T20:06:27.847Z,7.24
2023-03-17T20:08:59.247Z,7.20
2023-03-17T20:11:29.889Z,7.18
2023-03-17T20:14:00.953Z,7.15
2023-03-17T20:16:30.458Z,7.13
2023-03-17T20:19:02.550Z,7.09
2023-03-17T20:21:33.263Z,7.07
2023-03-17T20:24:04.734Z,7.06
2023-03-17T20:26:35.494Z,7.02
2023-03-17T20:29:06.478Z,6.98
2023-03-17T20:31:38.896Z,6.98
2023-03-17T20:34:10.661Z,6.97
2023-03-17T20:36:41.453Z,6.94
2023-03-17T20:39:12.257Z,6.91
2023-03-17T20:41:42.891Z,6.88
2023-03-17T20:44:13.789Z,6.86
2023-03-17T20:46:44.554Z,6.82
2023-03-17T20:49:15.943Z,6.80
2023-03-17T20:51:46.779Z,6.78
2023-03-17T20:54:17.437Z,6.76
2023-03-17T20:56:48.010Z,6.73
2023-03-17T20:59:18.812Z,6.72
2023-03-17T21:01:52.381Z,6.69
2023-03-17T21:04:21.641Z,6.68
2023-03-17T21:06:52.276Z,6.63
2023-03-17T21:09:23.082Z,6.61
2023-03-17T21:11:53.750Z,6.59
2023-03-17T21:14:24.538Z,6.57
2023-03-17T21:16:55.201Z,6.56
2023-03-17T21:19:25.888Z,6.55
2023-03-17T21:21:56.716Z,6.53
2023-03-17T21:24:31.247Z,6.52
2023-03-17T21:27:05.774Z,6.49
2023-03-17T21:29:36.996Z,6.48
2023-03-17T21:32:39.148Z,6.45
2023-03-17T21:35:00.151Z,6.42
2023-03-17T21:37:42.889Z,6.40
2023-03-17T21:40:17.544Z,6.40
2023-03-17T21:42:48.176Z,6.39
2023-03-17T21:45:21.181Z,6.37
2023-03-17T21:47:51.807Z,6.35
2023-03-17T21:50:23.293Z,6.35
2023-03-17T21:52:53.955Z,6.35
2023-03-17T21:55:25.108Z,6.35
2023-03-17T21:58:01.236Z,6.35
2023-03-17T22:00:44.733Z,6.32
2023-03-17T22:03:16.495Z,6.29
2023-03-17T22:05:45.596Z,6.29
2023-03-17T22:08:16.244Z,6.28
2023-03-17T22:10:47.385Z,6.28
2023-03-17T22:13:16.656Z,6.28
2023-03-17T22:15:47.427Z,6.27
2023-03-17T22:18:18.431Z,6.26
2023-03-17T22:20:52.664Z,6.23
2023-03-17T22:23:23.796Z,6.20
2023-03-17T22:25:52.921Z,6.18
2023-03-17T22:28:24.027Z,6.15
2023-03-17T22:30:53.135Z,6.13
2023-03-17T22:33:23.800Z,6.12
2023-03-17T22:35:54.475Z,6.10
2023-03-17T22:38:25.161Z,6.08
2023-03-17T22:41:13.984Z,6.05
2023-03-17T22:43:45.617Z,6.05
2023-03-17T22:46:17.657Z,6.05
2023-03-17T22:48:48.567Z,6.04
2023-03-17T22:51:21.835Z,6.03
2023-03-17T22:53:52.941Z,6.00
2023-03-17T22:56:22.107Z,5.97
2023-03-17T22:58:53.574Z,5.92
2023-03-17T23:01:24.846Z,5.88
2023-03-17T23:03:55.928Z,5.88
2023-03-17T23:06:25.127Z,5.87
2023-03-17T23:08:55.853Z,5.85
2023-03-17T23:11:27.237Z,5.85
2023-03-17T23:13:58.198Z,5.84
2023-03-17T23:16:29.103Z,5.83
2023-03-17T23:18:59.763Z,5.82
2023-03-17T23:21:32.422Z,5.81
2023-03-17T23:24:03.952Z,5.79
2023-03-17T23:26:35.279Z,5.79
2023-03-17T23:29:07.326Z,5.78
2023-03-17T23:31:38.630Z,5.77
2023-03-17T23:34:09.993Z,5.71
2023-03-17T23:36:57.088Z,5.65
2023-03-17T23:39:27.710Z,5.63
2023-03-17T23:41:58.400Z,5.60
2023-03-17T23:44:29.038Z,5.60
2023-03-17T23:46:59.756Z,5.58
2023-03-17T23:49:30.492Z,5.57
2023-03-17T23:52:01.784Z,5.53
2023-03-17T23:54:32.376Z,5.50
2023-03-17T23:57:03.037Z,5.50
2023-03-17T23:59:34.486Z,5.49
